sensor_id;sensor_type;location;lat;lon;timestamp;P1;durP1;ratioP1;P2;durP2;ratioP2
36817;SDS011;22761;51.542;16.450;2022-12-18T00:02:26;44.07;;;18.70;;
36817;SDS011;22761;51.542;16.450;2022-12-18T00:04:53;36.97;;;16.50;;
36817;SDS011;22761;51.542;16.450;2022-12-18T00:07:21;36.27;;;15.30;;
36817;SDS011;22761;51.542;16.450;2022-12-18T00:09:48;44.10;;;17.60;;
36817;SDS011;22761;51.542;16.450;2022-12-18T00:12:15;44.93;;;18.93;;
36817;SDS011;22761;51.542;16.450;2022-12-18T00:14:42;40.77;;;17.17;;
36817;SDS011;22761;51.542;16.450;2022-12-18T00:17:09;39.00;;;16.90;;
36817;SDS011;22761;51.542;16.450;2022-12-18T00:19:36;33.57;;;14.97;;
36817;SDS011;22761;51.542;16.450;2022-12-18T00:22:03;41.10;;;15.00;;
36817;SDS011;22761;51.542;16.450;2022-12-18T00:24:31;39.60;;;15.83;;
36817;SDS011;22761;51.542;16.450;2022-12-18T00:26:58;34.47;;;14.53;;
36817;SDS011;22761;51.542;16.450;2022-12-18T00:29:25;37.77;;;15.53;;
36817;SDS011;22761;51.542;16.450;2022-12-18T00:31:52;39.93;;;16.27;;
36817;SDS011;22761;51.542;16.450;2022-12-18T00:34:19;37.77;;;16.07;;
36817;SDS011;22761;51.542;16.450;2022-12-18T00:36:47;41.77;;;17.40;;
36817;SDS011;22761;51.542;16.450;2022-12-18T00:39:14;45.90;;;19.23;;
36817;SDS011;22761;51.542;16.450;2022-12-18T00:41:43;50.10;;;20.47;;
36817;SDS011;22761;51.542;16.450;2022-12-18T00:44:28;41.40;;;19.57;;
36817;SDS011;22761;51.542;16.450;2022-12-18T00:46:57;39.17;;;17.37;;
36817;SDS011;22761;51.542;16.450;2022-12-18T00:49:24;40.83;;;17.13;;
36817;SDS011;22761;51.542;16.450;2022-12-18T00:51:51;42.20;;;16.53;;
36817;SDS011;22761;51.542;16.450;2022-12-18T00:54:18;37.40;;;15.50;;
36817;SDS011;22761;51.542;16.450;2022-12-18T00:56:45;40.90;;;16.30;;
36817;SDS011;22761;51.542;16.450;2022-12-18T00:59:12;39.47;;;16.33;;
36817;SDS011;22761;51.542;16.450;2022-12-18T01:01:39;40.43;;;16.33;;
36817;SDS011;22761;51.542;16.450;2022-12-18T01:04:06;38.20;;;15.73;;
36817;SDS011;22761;51.542;16.450;2022-12-18T01:06:34;31.73;;;13.63;;
36817;SDS011;22761;51.542;16.450;2022-12-18T01:09:02;37.47;;;14.97;;
36817;SDS011;22761;51.542;16.450;2022-12-18T01:11:30;34.60;;;14.87;;
36817;SDS011;22761;51.542;16.450;2022-12-18T01:13:57;34.20;;;14.50;;
36817;SDS011;22761;51.542;16.450;2022-12-18T01:16:24;41.50;;;16.50;;
36817;SDS011;22761;51.542;16.450;2022-12-18T01:18:52;39.03;;;15.03;;
36817;SDS011;22761;51.542;16.450;2022-12-18T01:21:21;36.47;;;15.83;;
36817;SDS011;22761;51.542;16.450;2022-12-18T01:23:53;37.03;;;15.47;;
36817;SDS011;22761;51.542;16.450;2022-12-18T01:26:23;35.40;;;16.03;;
36817;SDS011;22761;51.542;16.450;2022-12-18T01:28:54;38.33;;;15.28;;
36817;SDS011;22761;51.542;16.450;2022-12-18T01:31:24;36.83;;;16.77;;
36817;SDS011;22761;51.542;16.450;2022-12-18T01:33:55;37.80;;;16.57;;
36817;SDS011;22761;51.542;16.450;2022-12-18T01:36:24;34.07;;;15.63;;
36817;SDS011;22761;51.542;16.450;2022-12-18T01:38:54;39.40;;;17.20;;
36817;SDS011;22761;51.542;16.450;2022-12-18T01:41:26;41.70;;;18.37;;
36817;SDS011;22761;51.542;16.450;2022-12-18T01:53:02;36.73;;;14.43;;
36817;SDS011;22761;51.542;16.450;2022-12-18T01:55:48;39.83;;;15.43;;
36817;SDS011;22761;51.542;16.450;2022-12-18T01:58:20;39.50;;;17.27;;
36817;SDS011;22761;51.542;16.450;2022-12-18T02:00:52;37.23;;;15.87;;
36817;SDS011;22761;51.542;16.450;2022-12-18T02:03:21;39.10;;;16.40;;
36817;SDS011;22761;51.542;16.450;2022-12-18T02:11:53;44.77;;;20.43;;
36817;SDS011;22761;51.542;16.450;2022-12-18T02:17:31;41.20;;;19.03;;
36817;SDS011;22761;51.542;16.450;2022-12-18T02:31:47;38.63;;;16.27;;
36817;SDS011;22761;51.542;16.450;2022-12-18T02:34:19;38.20;;;15.80;;
36817;SDS011;22761;51.542;16.450;2022-12-18T02:36:51;35.67;;;16.37;;
36817;SDS011;22761;51.542;16.450;2022-12-18T02:39:21;33.02;;;15.05;;
36817;SDS011;22761;51.542;16.450;2022-12-18T02:44:20;35.63;;;15.87;;
36817;SDS011;22761;51.542;16.450;2022-12-18T02:46:51;34.67;;;15.77;;
36817;SDS011;22761;51.542;16.450;2022-12-18T02:58:11;36.73;;;15.27;;
36817;SDS011;22761;51.542;16.450;2022-12-18T03:01:01;36.63;;;15.40;;
36817;SDS011;22761;51.542;16.450;2022-12-18T03:03:47;34.60;;;15.77;;
36817;SDS011;22761;51.542;16.450;2022-12-18T03:06:28;33.97;;;15.10;;
36817;SDS011;22761;51.542;16.450;2022-12-18T03:09:18;37.57;;;15.43;;
36817;SDS011;22761;51.542;16.450;2022-12-18T03:11:53;36.73;;;15.93;;
36817;SDS011;22761;51.542;16.450;2022-12-18T03:14:40;37.80;;;15.13;;
36817;SDS011;22761;51.542;16.450;2022-12-18T03:17:13;38.03;;;14.97;;
36817;SDS011;22761;51.542;16.450;2022-12-18T03:19:44;37.63;;;15.90;;
36817;SDS011;22761;51.542;16.450;2022-12-18T03:22:14;31.07;;;15.10;;
36817;SDS011;22761;51.542;16.450;2022-12-18T03:24:44;35.40;;;15.98;;
36817;SDS011;22761;51.542;16.450;2022-12-18T03:27:14;37.15;;;15.63;;
36817;SDS011;22761;51.542;16.450;2022-12-18T03:30:07;37.03;;;15.87;;
36817;SDS011;22761;51.542;16.450;2022-12-18T03:32:40;32.30;;;14.70;;
36817;SDS011;22761;51.542;16.450;2022-12-18T03:35:30;35.73;;;16.37;;
36817;SDS011;22761;51.542;16.450;2022-12-18T03:38:03;37.13;;;16.10;;
36817;SDS011;22761;51.542;16.450;2022-12-18T03:40:53;36.40;;;15.80;;
36817;SDS011;22761;51.542;16.450;2022-12-18T03:43:24;38.43;;;17.00;;
36817;SDS011;22761;51.542;16.450;2022-12-18T03:46:14;36.30;;;16.53;;
36817;SDS011;22761;51.542;16.450;2022-12-18T03:48:46;38.57;;;17.37;;
36817;SDS011;22761;51.542;16.450;2022-12-18T03:51:24;37.40;;;17.03;;
36817;SDS011;22761;51.542;16.450;2022-12-18T03:53:55;40.03;;;17.17;;
36817;SDS011;22761;51.542;16.450;2022-12-18T03:56:32;41.67;;;17.87;;
36817;SDS011;22761;51.542;16.450;2022-12-18T03:59:04;39.53;;;17.00;;
36817;SDS011;22761;51.542;16.450;2022-12-18T04:01:35;34.50;;;16.57;;
36817;SDS011;22761;51.542;16.450;2022-12-18T04:04:09;37.90;;;15.97;;
36817;SDS011;22761;51.542;16.450;2022-12-18T04:06:40;39.53;;;17.43;;
36817;SDS011;22761;51.542;16.450;2022-12-18T04:09:10;36.40;;;16.30;;
36817;SDS011;22761;51.542;16.450;2022-12-18T04:11:40;35.27;;;16.80;;
36817;SDS011;22761;51.542;16.450;2022-12-18T04:14:10;32.67;;;15.10;;
36817;SDS011;22761;51.542;16.450;2022-12-18T04:16:37;32.53;;;14.47;;
36817;SDS011;22761;51.542;16.450;2022-12-18T04:19:06;34.47;;;15.50;;
36817;SDS011;22761;51.542;16.450;2022-12-18T04:21:35;35.90;;;15.93;;
36817;SDS011;22761;51.542;16.450;2022-12-18T04:24:02;38.33;;;16.37;;
36817;SDS011;22761;51.542;16.450;2022-12-18T04:26:32;33.60;;;14.87;;
36817;SDS011;22761;51.542;16.450;2022-12-18T04:29:01;32.43;;;14.07;;
36817;SDS011;22761;51.542;16.450;2022-12-18T04:31:28;29.80;;;14.23;;
36817;SDS011;22761;51.542;16.450;2022-12-18T04:33:56;26.30;;;11.70;;
36817;SDS011;22761;51.542;16.450;2022-12-18T04:36:26;27.57;;;11.83;;
36817;SDS011;22761;51.542;16.450;2022-12-18T04:38:54;27.23;;;11.97;;
36817;SDS011;22761;51.542;16.450;2022-12-18T04:41:21;24.60;;;11.37;;
36817;SDS011;22761;51.542;16.450;2022-12-18T04:43:49;25.07;;;12.13;;
36817;SDS011;22761;51.542;16.450;2022-12-18T04:46:16;25.90;;;11.07;;
36817;SDS011;22761;51.542;16.450;2022-12-18T04:48:45;25.23;;;11.40;;
36817;SDS011;22761;51.542;16.450;2022-12-18T04:51:12;21.33;;;10.20;;
36817;SDS011;22761;51.542;16.450;2022-12-18T04:53:40;25.47;;;10.33;;
36817;SDS011;22761;51.542;16.450;2022-12-18T04:56:08;23.87;;;10.43;;
36817;SDS011;22761;51.542;16.450;2022-12-18T04:58:38;20.20;;;9.87;;
36817;SDS011;22761;51.542;16.450;2022-12-18T05:01:07;22.83;;;10.73;;
36817;SDS011;22761;51.542;16.450;2022-12-18T05:03:35;24.27;;;10.93;;
36817;SDS011;22761;51.542;16.450;2022-12-18T05:06:04;27.93;;;11.90;;
36817;SDS011;22761;51.542;16.450;2022-12-18T05:08:32;26.17;;;11.33;;
36817;SDS011;22761;51.542;16.450;2022-12-18T05:11:05;28.83;;;11.20;;
36817;SDS011;22761;51.542;16.450;2022-12-18T05:13:31;25.40;;;11.80;;
36817;SDS011;22761;51.542;16.450;2022-12-18T05:15:58;28.70;;;11.33;;
36817;SDS011;22761;51.542;16.450;2022-12-18T05:18:26;26.00;;;11.23;;
36817;SDS011;22761;51.542;16.450;2022-12-18T05:20:53;25.37;;;11.80;;
36817;SDS011;22761;51.542;16.450;2022-12-18T05:23:21;31.07;;;14.03;;
36817;SDS011;22761;51.542;16.450;2022-12-18T05:25:53;29.53;;;13.07;;
36817;SDS011;22761;51.542;16.450;2022-12-18T05:28:24;28.97;;;12.00;;
36817;SDS011;22761;51.542;16.450;2022-12-18T05:30:55;26.25;;;11.88;;
36817;SDS011;22761;51.542;16.450;2022-12-18T05:35:54;25.87;;;11.37;;
36817;SDS011;22761;51.542;16.450;2022-12-18T05:38:25;26.90;;;10.83;;
36817;SDS011;22761;51.542;16.450;2022-12-18T05:40:54;25.63;;;11.53;;
36817;SDS011;22761;51.542;16.450;2022-12-18T05:43:22;26.23;;;11.60;;
36817;SDS011;22761;51.542;16.450;2022-12-18T05:45:50;28.87;;;12.90;;
36817;SDS011;22761;51.542;16.450;2022-12-18T05:48:19;26.43;;;12.73;;
36817;SDS011;22761;51.542;16.450;2022-12-18T05:50:47;27.43;;;11.53;;
36817;SDS011;22761;51.542;16.450;2022-12-18T05:53:16;31.07;;;12.40;;
36817;SDS011;22761;51.542;16.450;2022-12-18T05:55:45;28.20;;;11.93;;
36817;SDS011;22761;51.542;16.450;2022-12-18T05:58:14;25.23;;;11.33;;
36817;SDS011;22761;51.542;16.450;2022-12-18T06:00:42;28.40;;;11.30;;
36817;SDS011;22761;51.542;16.450;2022-12-18T06:03:12;27.25;;;11.93;;
36817;SDS011;22761;51.542;16.450;2022-12-18T06:05:41;30.80;;;12.17;;
36817;SDS011;22761;51.542;16.450;2022-12-18T06:08:10;29.80;;;11.60;;
36817;SDS011;22761;51.542;16.450;2022-12-18T06:10:39;29.30;;;12.60;;
36817;SDS011;22761;51.542;16.450;2022-12-18T06:13:07;27.80;;;11.30;;
36817;SDS011;22761;51.542;16.450;2022-12-18T06:15:39;31.47;;;13.70;;
36817;SDS011;22761;51.542;16.450;2022-12-18T06:18:04;32.23;;;13.13;;
36817;SDS011;22761;51.542;16.450;2022-12-18T06:20:31;28.73;;;12.80;;
36817;SDS011;22761;51.542;16.450;2022-12-18T06:22:58;36.70;;;13.63;;
36817;SDS011;22761;51.542;16.450;2022-12-18T06:25:25;31.17;;;14.53;;
36817;SDS011;22761;51.542;16.450;2022-12-18T06:27:52;29.23;;;12.67;;
36817;SDS011;22761;51.542;16.450;2022-12-18T06:30:20;26.80;;;12.87;;
36817;SDS011;22761;51.542;16.450;2022-12-18T06:32:51;30.60;;;12.77;;
36817;SDS011;22761;51.542;16.450;2022-12-18T06:35:16;35.83;;;13.93;;
36817;SDS011;22761;51.542;16.450;2022-12-18T06:37:43;37.40;;;15.63;;
36817;SDS011;22761;51.542;16.450;2022-12-18T06:40:10;30.27;;;13.77;;
36817;SDS011;22761;51.542;16.450;2022-12-18T06:42:37;31.80;;;13.97;;
36817;SDS011;22761;51.542;16.450;2022-12-18T06:45:04;39.27;;;15.67;;
36817;SDS011;22761;51.542;16.450;2022-12-18T06:47:32;75.07;;;33.40;;
36817;SDS011;22761;51.542;16.450;2022-12-18T06:49:59;48.97;;;22.87;;
36817;SDS011;22761;51.542;16.450;2022-12-18T06:52:26;39.43;;;19.97;;
36817;SDS011;22761;51.542;16.450;2022-12-18T06:54:53;37.23;;;14.97;;
36817;SDS011;22761;51.542;16.450;2022-12-18T06:57:20;41.27;;;18.50;;
36817;SDS011;22761;51.542;16.450;2022-12-18T06:59:47;31.43;;;13.77;;
36817;SDS011;22761;51.542;16.450;2022-12-18T07:02:14;37.10;;;16.23;;
36817;SDS011;22761;51.542;16.450;2022-12-18T07:04:42;28.93;;;13.43;;
36817;SDS011;22761;51.542;16.450;2022-12-18T07:07:09;30.67;;;14.80;;
36817;SDS011;22761;51.542;16.450;2022-12-18T07:09:36;32.83;;;14.97;;
36817;SDS011;22761;51.542;16.450;2022-12-18T07:12:03;43.23;;;20.17;;
36817;SDS011;22761;51.542;16.450;2022-12-18T07:14:31;37.60;;;18.50;;
36817;SDS011;22761;51.542;16.450;2022-12-18T07:16:58;39.97;;;20.40;;
36817;SDS011;22761;51.542;16.450;2022-12-18T07:19:25;42.13;;;17.73;;
36817;SDS011;22761;51.542;16.450;2022-12-18T07:21:52;34.97;;;18.50;;
36817;SDS011;22761;51.542;16.450;2022-12-18T07:24:19;30.73;;;13.13;;
36817;SDS011;22761;51.542;16.450;2022-12-18T07:26:46;32.97;;;13.93;;
36817;SDS011;22761;51.542;16.450;2022-12-18T07:29:14;37.63;;;14.17;;
36817;SDS011;22761;51.542;16.450;2022-12-18T07:31:41;41.50;;;18.03;;
36817;SDS011;22761;51.542;16.450;2022-12-18T07:34:12;32.07;;;14.70;;
36817;SDS011;22761;51.542;16.450;2022-12-18T07:36:41;43.07;;;15.80;;
36817;SDS011;22761;51.542;16.450;2022-12-18T07:39:08;29.50;;;13.97;;
36817;SDS011;22761;51.542;16.450;2022-12-18T07:41:36;31.43;;;14.07;;
36817;SDS011;22761;51.542;16.450;2022-12-18T07:44:05;32.30;;;13.90;;
36817;SDS011;22761;51.542;16.450;2022-12-18T07:46:32;38.37;;;15.87;;
36817;SDS011;22761;51.542;16.450;2022-12-18T07:48:59;46.83;;;17.33;;
36817;SDS011;22761;51.542;16.450;2022-12-18T07:51:26;40.13;;;16.80;;
36817;SDS011;22761;51.542;16.450;2022-12-18T07:53:53;35.40;;;16.17;;
36817;SDS011;22761;51.542;16.450;2022-12-18T07:56:19;31.57;;;14.43;;
36817;SDS011;22761;51.542;16.450;2022-12-18T07:58:47;34.23;;;14.57;;
36817;SDS011;22761;51.542;16.450;2022-12-18T08:01:16;33.80;;;14.00;;
36817;SDS011;22761;51.542;16.450;2022-12-18T08:03:43;34.07;;;15.67;;
36817;SDS011;22761;51.542;16.450;2022-12-18T08:06:10;45.93;;;17.87;;
36817;SDS011;22761;51.542;16.450;2022-12-18T08:08:37;39.20;;;15.70;;
36817;SDS011;22761;51.542;16.450;2022-12-18T08:11:06;31.53;;;13.53;;
36817;SDS011;22761;51.542;16.450;2022-12-18T08:13:33;41.93;;;15.50;;
36817;SDS011;22761;51.542;16.450;2022-12-18T08:16:01;36.60;;;15.40;;
36817;SDS011;22761;51.542;16.450;2022-12-18T08:18:33;34.50;;;14.47;;
36817;SDS011;22761;51.542;16.450;2022-12-18T08:21:15;38.17;;;16.40;;
36817;SDS011;22761;51.542;16.450;2022-12-18T08:23:49;34.30;;;14.27;;
36817;SDS011;22761;51.542;16.450;2022-12-18T08:26:18;37.33;;;14.30;;
36817;SDS011;22761;51.542;16.450;2022-12-18T08:28:47;32.20;;;14.37;;
36817;SDS011;22761;51.542;16.450;2022-12-18T08:31:18;36.53;;;16.00;;
36817;SDS011;22761;51.542;16.450;2022-12-18T08:33:51;49.60;;;20.45;;
36817;SDS011;22761;51.542;16.450;2022-12-18T08:36:24;39.10;;;17.10;;
36817;SDS011;22761;51.542;16.450;2022-12-18T08:38:53;80.27;;;33.97;;
36817;SDS011;22761;51.542;16.450;2022-12-18T08:41:26;59.73;;;25.07;;
36817;SDS011;22761;51.542;16.450;2022-12-18T08:43:56;54.27;;;23.37;;
36817;SDS011;22761;51.542;16.450;2022-12-18T08:46:42;55.80;;;23.17;;
36817;SDS011;22761;51.542;16.450;2022-12-18T08:49:11;145.00;;;47.87;;
36817;SDS011;22761;51.542;16.450;2022-12-18T08:51:39;93.13;;;31.13;;
36817;SDS011;22761;51.542;16.450;2022-12-18T08:54:07;49.83;;;22.67;;
36817;SDS011;22761;51.542;16.450;2022-12-18T08:56:36;60.47;;;26.17;;
36817;SDS011;22761;51.542;16.450;2022-12-18T08:59:03;59.17;;;27.37;;
36817;SDS011;22761;51.542;16.450;2022-12-18T09:01:30;41.80;;;18.63;;
36817;SDS011;22761;51.542;16.450;2022-12-18T09:03:57;40.23;;;18.97;;
36817;SDS011;22761;51.542;16.450;2022-12-18T09:06:24;42.93;;;19.93;;
36817;SDS011;22761;51.542;16.450;2022-12-18T09:08:55;37.57;;;17.80;;
36817;SDS011;22761;51.542;16.450;2022-12-18T09:11:29;41.87;;;17.63;;
36817;SDS011;22761;51.542;16.450;2022-12-18T09:13:59;35.23;;;16.87;;
36817;SDS011;22761;51.542;16.450;2022-12-18T09:16:31;44.80;;;18.93;;
36817;SDS011;22761;51.542;16.450;2022-12-18T09:19:01;43.17;;;19.97;;
36817;SDS011;22761;51.542;16.450;2022-12-18T09:21:31;27.90;;;14.03;;
36817;SDS011;22761;51.542;16.450;2022-12-18T09:24:01;59.20;;;21.93;;
36817;SDS011;22761;51.542;16.450;2022-12-18T09:26:30;66.10;;;22.60;;
36817;SDS011;22761;51.542;16.450;2022-12-18T09:29:02;48.57;;;21.87;;
36817;SDS011;22761;51.542;16.450;2022-12-18T09:31:37;50.47;;;23.87;;
36817;SDS011;22761;51.542;16.450;2022-12-18T09:34:08;39.17;;;18.00;;
36817;SDS011;22761;51.542;16.450;2022-12-18T09:36:36;37.13;;;17.60;;
36817;SDS011;22761;51.542;16.450;2022-12-18T09:39:04;96.97;;;33.50;;
36817;SDS011;22761;51.542;16.450;2022-12-18T09:44:11;62.93;;;21.30;;
36817;SDS011;22761;51.542;16.450;2022-12-18T09:49:50;83.50;;;27.07;;
36817;SDS011;22761;51.542;16.450;2022-12-18T09:52:34;68.47;;;25.27;;
36817;SDS011;22761;51.542;16.450;2022-12-18T09:55:10;122.47;;;47.93;;
36817;SDS011;22761;51.542;16.450;2022-12-18T09:57:45;209.33;;;67.80;;
36817;SDS011;22761;51.542;16.450;2022-12-18T10:00:21;98.70;;;35.30;;
36817;SDS011;22761;51.542;16.450;2022-12-18T10:02:52;56.27;;;25.33;;
36817;SDS011;22761;51.542;16.450;2022-12-18T10:05:37;50.45;;;21.27;;
36817;SDS011;22761;51.542;16.450;2022-12-18T10:08:25;46.67;;;22.40;;
36817;SDS011;22761;51.542;16.450;2022-12-18T10:11:10;49.50;;;22.17;;
36817;SDS011;22761;51.542;16.450;2022-12-18T10:13:53;50.05;;;22.82;;
36817;SDS011;22761;51.542;16.450;2022-12-18T10:19:40;59.17;;;25.40;;
36817;SDS011;22761;51.542;16.450;2022-12-18T10:22:34;59.43;;;27.93;;
36817;SDS011;22761;51.542;16.450;2022-12-18T10:25:09;68.45;;;30.10;;
36817;SDS011;22761;51.542;16.450;2022-12-18T10:27:55;55.23;;;25.87;;
36817;SDS011;22761;51.542;16.450;2022-12-18T10:30:26;48.33;;;24.10;;
36817;SDS011;22761;51.542;16.450;2022-12-18T10:32:58;52.17;;;24.63;;
36817;SDS011;22761;51.542;16.450;2022-12-18T10:35:28;52.43;;;25.50;;
36817;SDS011;22761;51.542;16.450;2022-12-18T10:37:59;48.10;;;25.30;;
36817;SDS011;22761;51.542;16.450;2022-12-18T10:40:48;53.97;;;27.43;;
36817;SDS011;22761;51.542;16.450;2022-12-18T10:51:31;50.17;;;24.47;;
36817;SDS011;22761;51.542;16.450;2022-12-18T10:54:04;35.73;;;18.53;;
36817;SDS011;22761;51.542;16.450;2022-12-18T10:56:41;38.63;;;19.80;;
36817;SDS011;22761;51.542;16.450;2022-12-18T10:59:12;43.40;;;22.70;;
36817;SDS011;22761;51.542;16.450;2022-12-18T11:02:00;40.43;;;19.93;;
36817;SDS011;22761;51.542;16.450;2022-12-18T11:04:27;44.10;;;21.87;;
36817;SDS011;22761;51.542;16.450;2022-12-18T11:07:00;63.67;;;28.87;;
36817;SDS011;22761;51.542;16.450;2022-12-18T11:09:36;67.93;;;27.40;;
36817;SDS011;22761;51.542;16.450;2022-12-18T11:14:47;47.67;;;22.40;;
36817;SDS011;22761;51.542;16.450;2022-12-18T11:17:26;44.87;;;21.23;;
36817;SDS011;22761;51.542;16.450;2022-12-18T11:19:57;46.35;;;20.95;;
36817;SDS011;22761;51.542;16.450;2022-12-18T11:22:29;54.97;;;26.27;;
36817;SDS011;22761;51.542;16.450;2022-12-18T11:25:06;46.25;;;23.75;;
36817;SDS011;22761;51.542;16.450;2022-12-18T11:27:53;46.10;;;23.67;;
36817;SDS011;22761;51.542;16.450;2022-12-18T11:33:01;72.32;;;31.15;;
36817;SDS011;22761;51.542;16.450;2022-12-18T11:35:55;53.60;;;25.83;;
36817;SDS011;22761;51.542;16.450;2022-12-18T11:38:38;45.87;;;22.77;;
36817;SDS011;22761;51.542;16.450;2022-12-18T11:47:29;55.07;;;27.43;;
36817;SDS011;22761;51.542;16.450;2022-12-18T11:52:48;53.30;;;26.23;;
36817;SDS011;22761;51.542;16.450;2022-12-18T11:55:18;46.47;;;23.97;;
36817;SDS011;22761;51.542;16.450;2022-12-18T11:57:56;42.33;;;21.50;;
36817;SDS011;22761;51.542;16.450;2022-12-18T12:01:07;49.17;;;22.13;;
36817;SDS011;22761;51.542;16.450;2022-12-18T12:06:52;51.63;;;23.40;;
36817;SDS011;22761;51.542;16.450;2022-12-18T12:09:54;56.53;;;26.30;;
36817;SDS011;22761;51.542;16.450;2022-12-18T12:21:17;72.47;;;37.57;;
36817;SDS011;22761;51.542;16.450;2022-12-18T12:26:50;54.03;;;27.37;;
36817;SDS011;22761;51.542;16.450;2022-12-18T12:29:45;57.07;;;26.97;;
36817;SDS011;22761;51.542;16.450;2022-12-18T12:35:32;66.50;;;31.53;;
36817;SDS011;22761;51.542;16.450;2022-12-18T12:38:17;71.77;;;33.57;;
36817;SDS011;22761;51.542;16.450;2022-12-18T12:40:56;50.73;;;27.13;;
36817;SDS011;22761;51.542;16.450;2022-12-18T12:43:35;47.17;;;24.70;;
36817;SDS011;22761;51.542;16.450;2022-12-18T12:46:06;51.50;;;25.80;;
36817;SDS011;22761;51.542;16.450;2022-12-18T12:51:25;45.67;;;23.53;;
36817;SDS011;22761;51.542;16.450;2022-12-18T12:54:01;47.17;;;24.43;;
36817;SDS011;22761;51.542;16.450;2022-12-18T12:56:39;55.47;;;26.87;;
36817;SDS011;22761;51.542;16.450;2022-12-18T13:05:12;46.58;;;24.27;;
36817;SDS011;22761;51.542;16.450;2022-12-18T13:07:59;47.27;;;23.50;;
36817;SDS011;22761;51.542;16.450;2022-12-18T13:10:34;40.47;;;22.63;;
36817;SDS011;22761;51.542;16.450;2022-12-18T13:13:11;44.00;;;23.23;;
36817;SDS011;22761;51.542;16.450;2022-12-18T13:15:46;44.47;;;23.63;;
36817;SDS011;22761;51.542;16.450;2022-12-18T13:18:18;49.10;;;24.53;;
36817;SDS011;22761;51.542;16.450;2022-12-18T13:36:48;49.80;;;24.83;;
36817;SDS011;22761;51.542;16.450;2022-12-18T13:41:52;55.63;;;27.70;;
36817;SDS011;22761;51.542;16.450;2022-12-18T13:44:36;50.00;;;24.67;;
36817;SDS011;22761;51.542;16.450;2022-12-18T13:49:57;59.63;;;26.45;;
36817;SDS011;22761;51.542;16.450;2022-12-18T13:52:25;61.30;;;27.20;;
36817;SDS011;22761;51.542;16.450;2022-12-18T13:54:57;61.77;;;30.23;;
36817;SDS011;22761;51.542;16.450;2022-12-18T13:57:30;54.03;;;26.77;;
36817;SDS011;22761;51.542;16.450;2022-12-18T14:02:56;63.70;;;30.20;;
36817;SDS011;22761;51.542;16.450;2022-12-18T14:05:30;65.53;;;28.77;;
36817;SDS011;22761;51.542;16.450;2022-12-18T14:08:05;58.03;;;26.60;;
36817;SDS011;22761;51.542;16.450;2022-12-18T14:10:42;49.03;;;23.20;;
36817;SDS011;22761;51.542;16.450;2022-12-18T14:13:23;50.13;;;22.63;;
36817;SDS011;22761;51.542;16.450;2022-12-18T14:15:55;50.10;;;22.97;;
36817;SDS011;22761;51.542;16.450;2022-12-18T14:18:38;51.43;;;24.87;;
36817;SDS011;22761;51.542;16.450;2022-12-18T14:21:26;55.57;;;26.67;;
36817;SDS011;22761;51.542;16.450;2022-12-18T14:26:49;54.10;;;22.45;;
36817;SDS011;22761;51.542;16.450;2022-12-18T14:32:11;62.00;;;25.40;;
36817;SDS011;22761;51.542;16.450;2022-12-18T14:35:12;62.93;;;27.07;;
36817;SDS011;22761;51.542;16.450;2022-12-18T14:37:26;81.80;;;34.00;;
36817;SDS011;22761;51.542;16.450;2022-12-18T14:40:01;111.40;;;41.70;;
36817;SDS011;22761;51.542;16.450;2022-12-18T14:42:30;80.50;;;34.50;;
36817;SDS011;22761;51.542;16.450;2022-12-18T14:53:46;68.50;;;27.03;;
36817;SDS011;22761;51.542;16.450;2022-12-18T14:58:54;75.67;;;31.50;;
36817;SDS011;22761;51.542;16.450;2022-12-18T15:01:33;65.33;;;28.07;;
36817;SDS011;22761;51.542;16.450;2022-12-18T15:04:38;64.65;;;27.42;;
36817;SDS011;22761;51.542;16.450;2022-12-18T15:10:08;80.70;;;32.27;;
36817;SDS011;22761;51.542;16.450;2022-12-18T15:20:51;85.83;;;34.08;;
36817;SDS011;22761;51.542;16.450;2022-12-18T15:23:24;69.17;;;29.07;;
36817;SDS011;22761;51.542;16.450;2022-12-18T15:26:07;58.30;;;26.17;;
36817;SDS011;22761;51.542;16.450;2022-12-18T15:28:51;53.77;;;23.33;;
36817;SDS011;22761;51.542;16.450;2022-12-18T15:31:29;56.33;;;24.20;;
36817;SDS011;22761;51.542;16.450;2022-12-18T15:36:41;63.40;;;24.07;;
36817;SDS011;22761;51.542;16.450;2022-12-18T15:39:11;62.00;;;24.03;;
36817;SDS011;22761;51.542;16.450;2022-12-18T15:41:43;65.50;;;25.03;;
36817;SDS011;22761;51.542;16.450;2022-12-18T15:44:23;53.40;;;24.57;;
36817;SDS011;22761;51.542;16.450;2022-12-18T15:46:48;62.33;;;24.67;;
36817;SDS011;22761;51.542;16.450;2022-12-18T15:49:17;59.17;;;25.33;;
36817;SDS011;22761;51.542;16.450;2022-12-18T15:51:47;60.10;;;24.93;;
36817;SDS011;22761;51.542;16.450;2022-12-18T15:54:23;66.67;;;28.87;;
36817;SDS011;22761;51.542;16.450;2022-12-18T15:57:11;67.00;;;27.03;;
36817;SDS011;22761;51.542;16.450;2022-12-18T15:59:57;63.80;;;25.90;;
36817;SDS011;22761;51.542;16.450;2022-12-18T16:02:25;56.17;;;25.73;;
36817;SDS011;22761;51.542;16.450;2022-12-18T16:04:55;62.20;;;26.03;;
36817;SDS011;22761;51.542;16.450;2022-12-18T16:07:24;68.43;;;29.00;;
36817;SDS011;22761;51.542;16.450;2022-12-18T16:09:56;65.03;;;28.27;;
36817;SDS011;22761;51.542;16.450;2022-12-18T16:12:28;63.53;;;26.00;;
36817;SDS011;22761;51.542;16.450;2022-12-18T16:14:56;67.40;;;27.07;;
36817;SDS011;22761;51.542;16.450;2022-12-18T16:19:56;64.03;;;25.20;;
36817;SDS011;22761;51.542;16.450;2022-12-18T16:22:32;70.77;;;26.93;;
36817;SDS011;22761;51.542;16.450;2022-12-18T16:25:18;71.03;;;27.60;;
36817;SDS011;22761;51.542;16.450;2022-12-18T16:27:52;66.00;;;27.17;;
36817;SDS011;22761;51.542;16.450;2022-12-18T16:30:26;67.93;;;27.03;;
36817;SDS011;22761;51.542;16.450;2022-12-18T16:32:57;67.30;;;24.80;;
36817;SDS011;22761;51.542;16.450;2022-12-18T16:35:27;67.30;;;27.30;;
36817;SDS011;22761;51.542;16.450;2022-12-18T16:38:00;69.60;;;28.67;;
36817;SDS011;22761;51.542;16.450;2022-12-18T16:40:30;63.40;;;26.70;;
36817;SDS011;22761;51.542;16.450;2022-12-18T16:42:59;68.57;;;28.13;;
36817;SDS011;22761;51.542;16.450;2022-12-18T16:45:30;64.57;;;28.40;;
36817;SDS011;22761;51.542;16.450;2022-12-18T16:48:01;81.53;;;32.17;;
36817;SDS011;22761;51.542;16.450;2022-12-18T16:50:32;86.87;;;33.63;;
36817;SDS011;22761;51.542;16.450;2022-12-18T16:53:03;92.20;;;34.23;;
36817;SDS011;22761;51.542;16.450;2022-12-18T16:55:36;115.50;;;44.50;;
36817;SDS011;22761;51.542;16.450;2022-12-18T16:58:07;106.95;;;40.55;;
36817;SDS011;22761;51.542;16.450;2022-12-18T17:00:37;93.03;;;37.17;;
36817;SDS011;22761;51.542;16.450;2022-12-18T17:03:06;177.05;;;65.52;;
36817;SDS011;22761;51.542;16.450;2022-12-18T17:05:36;151.93;;;53.47;;
36817;SDS011;22761;51.542;16.450;2022-12-18T17:08:08;144.83;;;51.67;;
36817;SDS011;22761;51.542;16.450;2022-12-18T17:10:39;108.77;;;44.60;;
36817;SDS011;22761;51.542;16.450;2022-12-18T17:13:10;99.40;;;41.10;;
36817;SDS011;22761;51.542;16.450;2022-12-18T17:15:40;116.67;;;49.20;;
36817;SDS011;22761;51.542;16.450;2022-12-18T17:18:13;83.20;;;37.47;;